Time;durP1;ratioP1;P1;durP2;ratioP2;P2;SDS_P1;SDS_P2;PMS_P1;PMS_P2;Temp;Humidity;BMP_temperature;BMP_pressure;BME280_temperature;BME280_humidity;BME280_pressure;Samples;Min_cycle;Max_cycle;Signal;HPM_P1;HPM_P2
2023/11/22 00:00:20;;;;;;;33.08;18.70;;;7.80;99.90;;;;;;5037576;27;20029;-73
2023/11/22 00:02:47;;;;;;;38.05;20.27;;;7.80;99.90;;;;;;5038980;27;20125;-73
2023/11/22 00:05:13;;;;;;;35.85;19.30;;;7.80;99.90;;;;;;5037294;27;20022;-73
2023/11/22 00:07:39;;;;;;;37.72;21.80;;;7.80;99.90;;;;;;5038652;27;20036;-73
2023/11/22 00:10:05;;;;;;;44.33;22.27;;;7.70;99.90;;;;;;5030856;28;20035;-73
2023/11/22 00:12:37;;;;;;;39.17;21.63;;;7.70;99.90;;;;;;5020789;28;20493;-73
2023/11/22 00:15:07;;;;;;;37.63;20.88;;;7.70;99.90;;;;;;5029470;27;20021;-73
2023/11/22 00:17:34;;;;;;;40.67;19.95;;;7.70;99.90;;;;;;5035470;27;20030;-73
2023/11/22 00:20:03;;;;;;;34.92;19.98;;;7.70;99.90;;;;;;5035320;27;20069;-73
2023/11/22 00:22:32;;;;;;;41.20;22.10;;;7.60;99.90;;;;;;5024228;27;20029;-73
2023/11/22 00:24:58;;;;;;;40.85;22.35;;;7.60;99.90;;;;;;5031047;27;20022;-73
2023/11/22 00:27:24;;;;;;;35.60;21.42;;;7.60;99.90;;;;;;5034032;28;20033;-73
2023/11/22 00:29:49;;;;;;;42.75;21.65;;;7.60;99.90;;;;;;5033840;27;20051;-73
2023/11/22 00:32:15;;;;;;;32.92;18.90;;;7.60;99.90;;;;;;5028101;27;20416;-73
2023/11/22 00:34:41;;;;;;;37.47;20.80;;;7.50;99.90;;;;;;5029152;27;20022;-73
2023/11/22 00:37:07;;;;;;;39.17;23.15;;;7.50;99.90;;;;;;5027909;27;20428;-73
2023/11/22 00:39:32;;;;;;;37.88;21.20;;;7.50;99.90;;;;;;5035096;27;20026;-73
2023/11/22 00:41:58;;;;;;;41.70;22.33;;;7.50;99.90;;;;;;5034245;27;20085;-73
2023/11/22 00:44:24;;;;;;;41.58;23.33;;;7.40;99.90;;;;;;5024878;27;20025;-73
2023/11/22 00:46:50;;;;;;;40.25;20.88;;;7.40;99.90;;;;;;5028495;27;20025;-72
2023/11/22 00:49:15;;;;;;;38.83;21.13;;;7.50;99.90;;;;;;5037441;27;20042;-72
2023/11/22 00:51:42;;;;;;;38.17;22.00;;;7.40;99.90;;;;;;5033050;27;20022;-72
2023/11/22 00:54:07;;;;;;;40.63;23.73;;;7.50;99.90;;;;;;5030261;27;20499;-72
2023/11/22 00:56:33;;;;;;;49.97;24.65;;;7.40;99.90;;;;;;5027490;27;20026;-72
2023/11/22 00:58:59;;;;;;;41.88;23.75;;;7.50;99.90;;;;;;5038034;27;20109;-72
2023/11/22 01:01:25;;;;;;;43.08;24.15;;;7.50;99.90;;;;;;5030918;27;20026;-73
2023/11/22 01:03:51;;;;;;;42.45;24.40;;;7.60;99.90;;;;;;5029885;27;20018;-72
2023/11/22 01:06:18;;;;;;;47.88;25.40;;;7.50;99.90;;;;;;5026890;27;20504;-73
2023/11/22 01:08:43;;;;;;;43.17;25.42;;;7.50;99.90;;;;;;5019530;27;20030;-73
2023/11/22 01:11:09;;;;;;;47.10;25.15;;;7.50;99.90;;;;;;5037199;27;20034;-73
2023/11/22 01:13:40;;;;;;;49.72;25.55;;;7.50;99.90;;;;;;5031691;27;20022;-73
2023/11/22 01:16:10;;;;;;;47.70;25.42;;;7.50;99.90;;;;;;5039578;27;20063;-73
2023/11/22 01:18:36;;;;;;;47.78;24.65;;;7.50;99.90;;;;;;5029542;27;20525;-72
2023/11/22 01:21:03;;;;;;;46.17;25.40;;;7.50;99.90;;;;;;5032486;27;20064;-72
2023/11/22 01:23:30;;;;;;;40.42;23.77;;;7.40;99.90;;;;;;5032847;27;20025;-73
2023/11/22 01:25:56;;;;;;;45.20;24.45;;;7.50;99.90;;;;;;5025546;27;20025;-73
2023/11/22 01:28:21;;;;;;;37.40;23.10;;;7.50;99.90;;;;;;5026196;27;20372;-73
2023/11/22 01:30:48;;;;;;;38.92;21.95;;;7.50;99.90;;;;;;5035768;27;20049;-72
2023/11/22 01:33:15;;;;;;;43.13;22.50;;;7.50;99.90;;;;;;5029478;27;20047;-73
2023/11/22 01:35:40;;;;;;;42.28;23.15;;;7.40;99.90;;;;;;5033219;27;20022;-73
2023/11/22 01:38:07;;;;;;;49.33;22.83;;;7.30;99.90;;;;;;5037726;27;20074;-72
2023/11/22 01:40:34;;;;;;;40.80;23.10;;;7.30;99.90;;;;;;5032566;27;20018;-73
2023/11/22 01:43:00;;;;;;;43.10;24.50;;;7.30;99.90;;;;;;5022432;27;20026;-72
2023/11/22 01:45:26;;;;;;;44.03;24.85;;;7.30;99.90;;;;;;5033947;27;20018;-72
2023/11/22 01:47:53;;;;;;;44.08;22.95;;;7.40;99.90;;;;;;5036403;27;20086;-72
2023/11/22 01:50:19;;;;;;;46.58;22.45;;;7.40;99.90;;;;;;5035060;27;20394;-72
2023/11/22 01:52:45;;;;;;;41.95;24.73;;;7.40;99.90;;;;;;5018289;27;20040;-72
2023/11/22 01:55:13;;;;;;;42.58;23.60;;;7.40;99.90;;;;;;5021603;27;20491;-72
2023/11/22 01:57:39;;;;;;;44.53;25.15;;;7.40;99.90;;;;;;5036299;27;20018;-72
2023/11/22 02:00:13;;;;;;;42.88;23.75;;;7.50;99.90;;;;;;5036440;27;20474;-72
2023/11/22 02:02:39;;;;;;;48.88;23.17;;;7.50;99.90;;;;;;5032575;27;20029;-72
2023/11/22 02:05:05;;;;;;;39.70;23.15;;;7.40;99.90;;;;;;5030800;27;20056;-71
2023/11/22 02:07:31;;;;;;;40.05;23.52;;;7.40;99.90;;;;;;5038764;27;20484;-72
2023/11/22 02:09:58;;;;;;;44.28;25.10;;;7.40;99.90;;;;;;5020111;27;20034;-72
2023/11/22 02:12:23;;;;;;;43.75;23.75;;;7.50;99.90;;;;;;5036053;27;20087;-72
2023/11/22 02:14:49;;;;;;;47.17;24.30;;;7.50;99.90;;;;;;5017199;28;20458;-72
2023/11/22 02:17:16;;;;;;;43.15;23.80;;;7.30;99.90;;;;;;5029249;27;20460;-73
2023/11/22 02:19:43;;;;;;;41.78;22.95;;;7.30;99.90;;;;;;5036202;28;20044;-73
2023/11/22 02:22:08;;;;;;;43.17;23.85;;;7.30;99.90;;;;;;5036076;28;20125;-72
2023/11/22 02:24:34;;;;;;;43.30;25.17;;;7.30;99.90;;;;;;5030286;28;20094;-72
2023/11/22 02:27:00;;;;;;;46.67;25.38;;;7.30;99.90;;;;;;5028349;28;20037;-73
2023/11/22 02:29:27;;;;;;;43.20;25.48;;;7.30;99.90;;;;;;5030195;28;20034;-72
2023/11/22 02:31:52;;;;;;;48.90;26.17;;;7.30;99.90;;;;;;5029906;28;20419;-72
2023/11/22 02:34:19;;;;;;;52.63;25.25;;;7.30;99.90;;;;;;5018158;28;20017;-72
2023/11/22 02:36:45;;;;;;;46.35;24.52;;;7.30;99.90;;;;;;5016983;28;20120;-72
2023/11/22 02:39:10;;;;;;;45.75;25.65;;;7.30;99.90;;;;;;5032017;27;20431;-72
2023/11/22 02:41:36;;;;;;;45.58;26.67;;;7.30;99.90;;;;;;5025645;27;20526;-72
2023/11/22 02:44:02;;;;;;;46.70;24.92;;;7.40;99.90;;;;;;5033401;27;20386;-72
2023/11/22 02:46:29;;;;;;;41.47;24.30;;;7.40;99.90;;;;;;5026988;27;20111;-72
2023/11/22 02:48:54;;;;;;;42.05;24.08;;;7.40;99.90;;;;;;5033660;27;20057;-72
2023/11/22 02:51:22;;;;;;;51.03;26.88;;;7.40;99.90;;;;;;5037466;27;20069;-72
2023/11/22 02:53:49;;;;;;;43.38;25.30;;;7.40;99.90;;;;;;5036606;27;20022;-72
2023/11/22 02:56:15;;;;;;;41.28;24.88;;;7.40;99.90;;;;;;5029778;27;20457;-72
2023/11/22 02:58:41;;;;;;;45.17;24.67;;;7.40;99.90;;;;;;5032721;27;20037;-72
2023/11/22 03:01:07;;;;;;;42.20;24.27;;;7.40;99.90;;;;;;5028115;27;20057;-72
2023/11/22 03:03:34;;;;;;;44.65;24.25;;;7.40;99.90;;;;;;5023231;27;20068;-72
2023/11/22 03:06:00;;;;;;;39.15;23.20;;;7.40;99.90;;;;;;5031539;27;20377;-72
2023/11/22 03:08:25;;;;;;;41.88;23.23;;;7.40;99.90;;;;;;5044897;27;20110;-73
2023/11/22 03:10:51;;;;;;;45.25;24.63;;;7.30;99.90;;;;;;5033577;27;20036;-73
2023/11/22 03:13:18;;;;;;;41.08;23.23;;;7.30;99.90;;;;;;5022478;28;20060;-73
2023/11/22 03:15:44;;;;;;;40.03;22.80;;;7.30;99.90;;;;;;5034400;27;20021;-73
2023/11/22 03:18:11;;;;;;;41.55;22.70;;;7.30;99.90;;;;;;5019262;27;20030;-73
2023/11/22 03:20:37;;;;;;;46.28;24.33;;;7.30;99.90;;;;;;5034108;27;20497;-73
2023/11/22 03:23:04;;;;;;;46.00;22.75;;;7.30;99.90;;;;;;5037340;27;20034;-73
2023/11/22 03:25:30;;;;;;;42.35;22.67;;;7.30;99.90;;;;;;5036963;27;20022;-72
2023/11/22 03:27:56;;;;;;;42.67;22.02;;;7.20;99.90;;;;;;5033776;27;20474;-72
2023/11/22 03:30:22;;;;;;;41.55;20.92;;;7.30;99.90;;;;;;5031749;27;20021;-73
2023/11/22 03:32:49;;;;;;;38.20;21.27;;;7.20;99.90;;;;;;5027150;27;20026;-73
2023/11/22 03:35:16;;;;;;;39.70;20.85;;;7.30;99.90;;;;;;5029006;27;20462;-73
2023/11/22 03:37:42;;;;;;;34.45;19.30;;;7.20;99.90;;;;;;5033530;27;20026;-73
2023/11/22 03:40:09;;;;;;;34.85;19.60;;;7.20;99.90;;;;;;5028359;27;20021;-72
2023/11/22 03:42:38;;;;;;;39.25;21.05;;;7.10;99.90;;;;;;5029755;27;20017;-72
2023/11/22 03:45:05;;;;;;;35.75;21.60;;;7.10;99.90;;;;;;5034598;27;20022;-73
2023/11/22 03:47:32;;;;;;;40.80;23.60;;;7.10;99.90;;;;;;5036176;27;20087;-73
2023/11/22 03:49:59;;;;;;;38.47;22.42;;;7.10;99.90;;;;;;5034974;27;20108;-73
2023/11/22 03:52:26;;;;;;;36.63;22.48;;;7.00;99.90;;;;;;5022212;28;20114;-73
2023/11/22 03:54:52;;;;;;;36.92;22.17;;;7.00;99.90;;;;;;5021515;27;20113;-73
2023/11/22 03:57:18;;;;;;;41.67;23.35;;;7.00;99.90;;;;;;5027438;27;20171;-72
2023/11/22 03:59:44;;;;;;;36.17;20.15;;;6.90;99.90;;;;;;5034023;27;20073;-72
2023/11/22 04:02:10;;;;;;;36.40;17.77;;;6.90;99.90;;;;;;5026419;27;20104;-72
2023/11/22 04:04:37;;;;;;;32.05;17.02;;;6.80;99.90;;;;;;5026295;27;20578;-72
2023/11/22 04:07:03;;;;;;;36.00;20.05;;;6.80;99.90;;;;;;5024755;27;20034;-72
2023/11/22 04:09:29;;;;;;;32.22;19.10;;;6.80;99.90;;;;;;5027939;27;20448;-72
2023/11/22 04:11:55;;;;;;;35.70;20.60;;;6.80;99.90;;;;;;5026408;27;20767;-72
2023/11/22 04:14:21;;;;;;;41.10;21.55;;;6.80;99.90;;;;;;5023964;27;20018;-72
2023/11/22 04:16:47;;;;;;;48.92;23.98;;;6.80;99.90;;;;;;5038466;27;20026;-72
2023/11/22 04:19:12;;;;;;;51.05;25.40;;;6.80;99.90;;;;;;5030316;27;20075;-72
2023/11/22 04:21:39;;;;;;;50.08;24.75;;;6.70;99.90;;;;;;5022953;28;20033;-73
2023/11/22 04:24:06;;;;;;;99.22;29.00;;;6.70;99.90;;;;;;5027680;27;20018;-72
2023/11/22 04:26:31;;;;;;;88.75;27.48;;;6.70;99.90;;;;;;5032002;27;20304;-72
2023/11/22 04:28:58;;;;;;;57.70;24.85;;;6.70;99.90;;;;;;5026026;27;20935;-72
2023/11/22 04:31:24;;;;;;;47.28;25.25;;;6.70;99.90;;;;;;5034385;27;20033;-72
2023/11/22 04:33:50;;;;;;;51.95;25.33;;;6.70;99.90;;;;;;5042931;27;20480;-72
2023/11/22 04:36:16;;;;;;;50.63;27.33;;;6.80;99.90;;;;;;5013429;27;20079;-72
2023/11/22 04:38:42;;;;;;;46.92;25.92;;;6.80;99.90;;;;;;5030244;27;20367;-72
2023/11/22 04:41:08;;;;;;;49.05;25.33;;;6.80;99.90;;;;;;5041201;27;20020;-72
2023/11/22 04:43:33;;;;;;;54.60;26.42;;;6.90;99.90;;;;;;5026737;27;20036;-72
2023/11/22 04:45:59;;;;;;;84.40;29.23;;;6.90;99.90;;;;;;5042261;27;20028;-72
2023/11/22 04:48:25;;;;;;;113.50;28.13;;;6.70;99.90;;;;;;5030997;27;20386;-72
2023/11/22 04:50:50;;;;;;;94.78;25.38;;;6.70;99.90;;;;;;5026025;27;20029;-73
2023/11/22 04:53:17;;;;;;;68.70;26.52;;;6.70;99.90;;;;;;5019059;27;20159;-72
2023/11/22 04:55:43;;;;;;;81.20;25.77;;;6.70;99.90;;;;;;5026360;27;20014;-72
2023/11/22 04:58:08;;;;;;;127.03;27.10;;;6.60;99.90;;;;;;5038863;27;20034;-72
2023/11/22 05:00:34;;;;;;;49.47;24.23;;;6.50;99.90;;;;;;5036202;27;20064;-72
2023/11/22 05:03:00;;;;;;;90.20;26.52;;;6.50;99.90;;;;;;5033145;27;20030;-72
2023/11/22 05:05:25;;;;;;;52.63;24.42;;;6.50;99.90;;;;;;5031068;27;20104;-72
2023/11/22 05:07:51;;;;;;;85.68;24.85;;;6.60;99.90;;;;;;5030619;27;20044;-72
2023/11/22 05:10:17;;;;;;;52.17;23.83;;;6.60;99.90;;;;;;5039313;27;20561;-72
2023/11/22 05:12:44;;;;;;;49.35;24.20;;;6.60;99.90;;;;;;5028583;27;20675;-72
2023/11/22 05:15:10;;;;;;;66.38;26.48;;;6.70;99.90;;;;;;5026066;27;20022;-72
2023/11/22 05:17:36;;;;;;;70.13;27.27;;;6.80;99.90;;;;;;5024628;28;20018;-72
2023/11/22 05:20:02;;;;;;;58.65;27.00;;;6.80;99.90;;;;;;5034958;27;20023;-72
2023/11/22 05:22:27;;;;;;;68.28;27.45;;;6.80;99.90;;;;;;5016444;27;20022;-72
2023/11/22 05:24:53;;;;;;;50.88;26.75;;;6.80;99.90;;;;;;5031801;27;20020;-72
2023/11/22 05:27:19;;;;;;;52.50;26.65;;;6.90;99.90;;;;;;5037511;27;20072;-72
2023/11/22 05:29:45;;;;;;;154.68;33.17;;;6.90;99.90;;;;;;5024487;27;20026;-72
2023/11/22 05:32:11;;;;;;;112.95;29.48;;;6.90;99.90;;;;;;5026629;27;20082;-72
2023/11/22 05:34:37;;;;;;;51.60;26.88;;;6.80;99.90;;;;;;5038549;27;20032;-72
2023/11/22 05:37:05;;;;;;;64.03;26.50;;;6.90;99.90;;;;;;5025028;27;20036;-72
2023/11/22 05:39:31;;;;;;;58.45;26.30;;;6.80;99.90;;;;;;5025649;27;20026;-72
2023/11/22 05:41:57;;;;;;;49.47;25.90;;;6.90;99.90;;;;;;5028768;27;20037;-72
2023/11/22 05:44:22;;;;;;;54.28;26.40;;;6.80;99.90;;;;;;5020228;27;20053;-72
2023/11/22 05:46:48;;;;;;;52.75;26.60;;;6.90;99.90;;;;;;5026026;27;20017;-72
2023/11/22 05:49:13;;;;;;;49.38;26.60;;;6.90;99.90;;;;;;5061694;27;20047;-73
2023/11/22 05:51:39;;;;;;;78.85;28.60;;;7.00;99.90;;;;;;5028872;27;20109;-73
2023/11/22 05:54:06;;;;;;;74.57;28.52;;;6.90;99.90;;;;;;5023376;27;20053;-73
2023/11/22 05:56:32;;;;;;;88.07;29.30;;;6.90;99.90;;;;;;5027884;27;20021;-73
2023/11/22 05:58:59;;;;;;;61.63;29.30;;;6.90;99.90;;;;;;5017102;28;20087;-73
2023/11/22 06:01:26;;;;;;;54.58;26.55;;;6.90;99.90;;;;;;5035020;27;20378;-73
2023/11/22 06:03:52;;;;;;;58.05;26.55;;;6.90;99.90;;;;;;5027278;27;20437;-72
2023/11/22 06:06:21;;;;;;;56.67;27.05;;;6.90;99.90;;;;;;5024179;27;20022;-73
2023/11/22 06:08:47;;;;;;;53.97;26.02;;;6.90;99.90;;;;;;5026351;28;20041;-73
2023/11/22 06:11:14;;;;;;;55.45;27.30;;;6.90;99.90;;;;;;5021850;27;20359;-73
2023/11/22 06:13:42;;;;;;;54.55;26.58;;;7.00;99.90;;;;;;5023591;27;20026;-72
2023/11/22 06:16:09;;;;;;;61.30;27.73;;;6.90;99.90;;;;;;5033425;27;20099;-73
2023/11/22 06:18:40;;;;;;;69.43;30.75;;;6.90;99.90;;;;;;5101080;27;20078;-73
2023/11/22 06:21:06;;;;;;;71.20;29.98;;;6.80;99.90;;;;;;5022504;28;20028;-72
2023/11/22 06:23:31;;;;;;;65.18;30.17;;;6.90;99.90;;;;;;5011241;28;20033;-72
2023/11/22 06:25:57;;;;;;;73.00;31.27;;;7.00;99.90;;;;;;5029174;27;20014;-72
2023/11/22 06:28:23;;;;;;;88.43;33.13;;;6.90;99.90;;;;;;5041500;28;20584;-72
2023/11/22 06:30:48;;;;;;;68.35;29.52;;;7.00;99.90;;;;;;5024695;28;20424;-73
2023/11/22 06:33:14;;;;;;;76.80;30.98;;;7.00;99.90;;;;;;5019899;28;20023;-72
2023/11/22 06:35:42;;;;;;;79.75;32.55;;;7.00;99.90;;;;;;5025810;28;20030;-73
2023/11/22 06:38:08;;;;;;;79.68;32.53;;;7.00;99.90;;;;;;5021842;28;20034;-72
2023/11/22 06:40:34;;;;;;;73.50;33.15;;;6.90;99.90;;;;;;5018717;28;20029;-72
2023/11/22 06:43:00;;;;;;;75.00;33.47;;;7.00;99.90;;;;;;5024450;28;20041;-72
2023/11/22 06:45:25;;;;;;;87.30;32.58;;;6.90;99.90;;;;;;5037629;28;20064;-73
2023/11/22 06:47:51;;;;;;;78.93;34.33;;;6.80;99.90;;;;;;5035435;28;20030;-72
2023/11/22 06:50:18;;;;;;;75.97;33.83;;;6.80;99.90;;;;;;5027025;28;20061;-73
2023/11/22 06:52:45;;;;;;;82.78;35.08;;;6.70;99.90;;;;;;5028731;28;20104;-72
2023/11/22 06:55:11;;;;;;;79.45;33.42;;;6.70;99.90;;;;;;5041519;28;20580;-72
2023/11/22 06:57:37;;;;;;;78.13;34.75;;;6.70;99.90;;;;;;5029356;28;20109;-72
2023/11/22 07:00:10;;;;;;;73.65;33.28;;;6.80;99.90;;;;;;5037233;28;20025;-72
2023/11/22 07:02:36;;;;;;;75.28;33.47;;;6.80;99.90;;;;;;5045976;28;20033;-72
2023/11/22 07:05:03;;;;;;;78.93;33.95;;;6.90;99.90;;;;;;5022844;28;20018;-72
2023/11/22 07:07:29;;;;;;;65.50;29.30;;;6.90;99.90;;;;;;5034695;28;20045;-73
2023/11/22 07:09:58;;;;;;;88.93;35.22;;;7.00;99.90;;;;;;5032032;28;20374;-72
2023/11/22 07:12:24;;;;;;;97.32;36.83;;;7.00;99.90;;;;;;5039469;28;20101;-72
2023/11/22 07:14:50;;;;;;;137.90;38.45;;;6.90;99.90;;;;;;5020338;28;20061;-72
2023/11/22 07:17:17;;;;;;;92.20;37.72;;;6.90;99.90;;;;;;5030189;28;20049;-72
2023/11/22 07:19:46;;;;;;;87.70;36.70;;;6.90;99.90;;;;;;5022391;28;20051;-72
2023/11/22 07:22:17;;;;;;;111.18;37.35;;;7.00;99.90;;;;;;5020631;28;20058;-72
2023/11/22 07:24:47;;;;;;;87.97;35.70;;;7.00;99.90;;;;;;5018721;27;21135;-72
2023/11/22 07:27:16;;;;;;;103.53;39.63;;;7.10;99.90;;;;;;5040324;27;20438;-72
2023/11/22 07:29:43;;;;;;;145.27;44.13;;;7.00;99.90;;;;;;5042646;27;20032;-72
2023/11/22 07:32:09;;;;;;;98.25;38.85;;;7.00;99.90;;;;;;5028995;27;20044;-72
2023/11/22 07:34:36;;;;;;;103.90;39.75;;;7.00;99.90;;;;;;5031853;27;20501;-71
2023/11/22 07:37:02;;;;;;;103.13;39.33;;;7.10;99.90;;;;;;5022235;27;20625;-72
2023/11/22 07:39:28;;;;;;;100.70;40.67;;;7.10;99.90;;;;;;5020690;27;20471;-72
2023/11/22 07:41:57;;;;;;;109.15;43.42;;;7.10;99.90;;;;;;5037969;27;20032;-72
2023/11/22 07:44:24;;;;;;;124.60;43.70;;;7.10;99.90;;;;;;5027081;27;20022;-72
2023/11/22 07:46:51;;;;;;;121.78;43.00;;;7.20;99.90;;;;;;5029109;27;20025;-72
2023/11/22 07:49:17;;;;;;;120.18;42.22;;;7.30;99.90;;;;;;5025067;28;20033;-72
2023/11/22 07:51:45;;;;;;;125.38;45.13;;;7.30;99.90;;;;;;5028161;27;20033;-72
2023/11/22 07:54:15;;;;;;;121.75;43.53;;;7.30;99.90;;;;;;5019700;27;20022;-72
2023/11/22 07:56:44;;;;;;;121.13;44.40;;;7.30;99.90;;;;;;5028418;27;20215;-72
2023/11/22 07:59:13;;;;;;;123.15;45.35;;;7.30;99.90;;;;;;5018455;27;20540;-72
2023/11/22 08:01:39;;;;;;;120.32;48.28;;;7.30;99.90;;;;;;5025870;27;20081;-72
2023/11/22 08:04:05;;;;;;;121.20;43.22;;;7.30;99.90;;;;;;5025270;27;20013;-72
2023/11/22 08:06:34;;;;;;;126.30;47.17;;;7.30;99.90;;;;;;5029408;27;20041;-72
2023/11/22 08:09:01;;;;;;;127.95;47.65;;;7.30;99.90;;;;;;5036233;27;20053;-73
2023/11/22 08:11:28;;;;;;;120.22;45.03;;;7.30;99.90;;;;;;5019960;27;20026;-73
2023/11/22 08:13:57;;;;;;;115.47;46.13;;;7.30;99.90;;;;;;5031712;27;20359;-74
2023/11/22 08:16:23;;;;;;;120.45;49.58;;;7.40;99.90;;;;;;5030904;27;20049;-73
2023/11/22 08:18:49;;;;;;;118.20;45.97;;;7.40;99.90;;;;;;5039993;27;20470;-73
2023/11/22 08:21:15;;;;;;;120.65;45.45;;;7.50;99.90;;;;;;5033307;27;20033;-73
2023/11/22 08:23:40;;;;;;;113.68;43.03;;;7.50;99.90;;;;;;5018062;27;20022;-72
2023/11/22 08:26:08;;;;;;;120.25;45.53;;;7.50;99.90;;;;;;5021481;27;20308;-72
2023/11/22 08:28:34;;;;;;;112.57;43.90;;;7.60;99.90;;;;;;5023644;27;20466;-73
2023/11/22 08:31:04;;;;;;;123.60;46.88;;;7.50;99.90;;;;;;5032384;27;20509;-73
2023/11/22 08:33:30;;;;;;;121.85;46.22;;;7.40;99.90;;;;;;5030661;27;20094;-73
2023/11/22 08:35:59;;;;;;;129.05;47.10;;;7.50;99.90;;;;;;5037729;27;20446;-73
2023/11/22 08:38:28;;;;;;;128.23;46.58;;;7.50;99.90;;;;;;5020834;27;20037;-73
2023/11/22 08:40:55;;;;;;;118.53;46.78;;;7.60;99.90;;;;;;5035366;27;20033;-73
2023/11/22 08:43:23;;;;;;;118.72;45.53;;;7.60;99.90;;;;;;5021516;27;20051;-73
2023/11/22 08:45:49;;;;;;;125.80;48.70;;;7.60;99.90;;;;;;5016961;27;20506;-74
2023/11/22 08:48:15;;;;;;;138.93;50.47;;;7.50;99.90;;;;;;5028150;27;20546;-73
2023/11/22 08:50:41;;;;;;;125.53;50.10;;;7.50;99.90;;;;;;5034396;27;20037;-73
2023/11/22 08:53:08;;;;;;;116.78;47.78;;;7.40;99.90;;;;;;5034811;27;20026;-74
2023/11/22 08:55:33;;;;;;;115.97;48.90;;;7.50;99.90;;;;;;5025407;28;20033;-75
2023/11/22 08:58:00;;;;;;;110.38;46.58;;;7.40;99.90;;;;;;5027236;27;20033;-74
2023/11/22 09:00:28;;;;;;;121.05;48.55;;;7.30;99.90;;;;;;5025816;27;20085;-74
2023/11/22 09:02:54;;;;;;;120.85;50.08;;;7.30;99.90;;;;;;5025750;27;20049;-74
2023/11/22 09:05:21;;;;;;;117.93;49.60;;;7.40;99.90;;;;;;5024014;28;20032;-74
2023/11/22 09:07:47;;;;;;;129.15;52.15;;;7.40;99.90;;;;;;5031414;27;20032;-74
2023/11/22 09:10:14;;;;;;;128.05;52.95;;;7.40;99.90;;;;;;5029431;27;20032;-74
2023/11/22 09:12:40;;;;;;;133.63;53.83;;;7.30;99.90;;;;;;5031017;28;20028;-75
2023/11/22 09:15:16;;;;;;;120.35;48.72;;;7.40;99.90;;;;;;5036868;27;20021;-73
2023/11/22 09:17:48;;;;;;;127.68;52.55;;;7.50;99.90;;;;;;5034290;27;20033;-74
2023/11/22 09:20:18;;;;;;;126.22;51.33;;;7.40;99.90;;;;;;5026225;28;20401;-75
2023/11/22 09:22:47;;;;;;;121.35;50.72;;;7.40;99.90;;;;;;5035744;27;20650;-74
2023/11/22 09:25:16;;;;;;;126.65;51.63;;;7.50;99.90;;;;;;5031470;27;20149;-74
2023/11/22 09:27:46;;;;;;;113.93;47.25;;;7.50;99.90;;;;;;5028679;28;20142;-74
2023/11/22 09:30:18;;;;;;;109.78;46.90;;;7.60;99.90;;;;;;5036602;27;20535;-73
2023/11/22 09:32:48;;;;;;;122.25;48.63;;;7.50;99.90;;;;;;5036816;27;20048;-76
2023/11/22 09:35:15;;;;;;;123.05;51.95;;;7.60;99.90;;;;;;5027434;28;20013;-76
2023/11/22 09:37:44;;;;;;;127.05;52.13;;;7.60;99.90;;;;;;5034631;27;20036;-77
2023/11/22 09:40:12;;;;;;;121.22;51.60;;;7.60;99.90;;;;;;5036356;27;20017;-77
2023/11/22 09:42:38;;;;;;;124.88;49.47;;;7.60;99.90;;;;;;5027763;28;20032;-77
2023/11/22 09:45:04;;;;;;;124.00;53.22;;;7.70;99.90;;;;;;5029571;27;20021;-77
2023/11/22 09:47:34;;;;;;;130.65;54.92;;;7.90;99.90;;;;;;5027453;28;20092;-77
2023/11/22 09:50:05;;;;;;;122.55;53.25;;;7.80;99.90;;;;;;5041592;27;20027;-77
2023/11/22 09:52:34;;;;;;;118.03;51.40;;;7.80;99.90;;;;;;5031495;28;20025;-77
2023/11/22 09:55:02;;;;;;;116.65;49.70;;;7.80;99.90;;;;;;5028269;28;20176;-75
2023/11/22 09:57:30;;;;;;;122.53;53.05;;;7.90;99.90;;;;;;5033225;27;20032;-77
2023/11/22 09:59:57;;;;;;;126.68;53.75;;;7.90;99.90;;;;;;5033722;27;20402;-76
2023/11/22 10:02:26;;;;;;;125.75;48.50;;;7.90;99.90;;;;;;5037612;28;20025;-77
2023/11/22 10:04:53;;;;;;;136.05;54.13;;;7.90;99.90;;;;;;5033280;27;20025;-76
2023/11/22 10:07:19;;;;;;;127.85;52.72;;;7.90;99.90;;;;;;5026368;27;20363;-77
2023/11/22 10:09:45;;;;;;;111.25;46.28;;;8.00;99.90;;;;;;5033854;27;20538;-77
2023/11/22 10:12:13;;;;;;;115.00;48.35;;;8.00;99.90;;;;;;5025131;28;20029;-76
2023/11/22 10:14:38;;;;;;;118.43;49.03;;;8.00;99.90;;;;;;5031849;28;20078;-76
2023/11/22 10:17:05;;;;;;;118.72;50.70;;;8.00;99.90;;;;;;5028264;27;20418;-76
2023/11/22 10:19:31;;;;;;;107.22;48.30;;;8.00;99.90;;;;;;5029940;27;20722;-76
2023/11/22 10:22:07;;;;;;;111.90;50.20;;;8.00;99.90;;;;;;5032436;28;20134;-75
2023/11/22 10:24:33;;;;;;;121.40;50.63;;;8.00;99.90;;;;;;5030424;28;20044;-77
2023/11/22 10:27:00;;;;;;;111.50;48.97;;;8.10;99.90;;;;;;5031460;28;20053;-76
2023/11/22 10:29:26;;;;;;;104.15;46.05;;;8.00;99.90;;;;;;5027037;28;20457;-76
2023/11/22 10:31:52;;;;;;;105.50;46.80;;;7.90;99.90;;;;;;5032736;28;20377;-75
2023/11/22 10:34:25;;;;;;;95.15;45.90;;;8.00;99.90;;;;;;5026870;28;20038;-77
2023/11/22 10:36:52;;;;;;;93.38;42.83;;;8.10;99.90;;;;;;5033043;28;20028;-77
2023/11/22 10:39:21;;;;;;;91.72;43.65;;;8.20;99.90;;;;;;5037597;28;20463;-77
2023/11/22 10:41:47;;;;;;;90.65;42.85;;;8.30;99.90;;;;;;5029942;28;20028;-78
2023/11/22 10:44:15;;;;;;;84.50;40.80;;;8.20;99.90;;;;;;5030773;28;20032;-77
2023/11/22 10:46:41;;;;;;;81.82;38.65;;;8.30;99.90;;;;;;5021054;28;20029;-77
2023/11/22 10:49:07;;;;;;;81.18;38.60;;;8.20;99.90;;;;;;5027587;28;20026;-77
2023/11/22 10:51:34;;;;;;;82.57;39.90;;;8.30;99.90;;;;;;5033577;28;20112;-77
2023/11/22 10:54:04;;;;;;;80.72;38.38;;;8.30;99.90;;;;;;5022491;28;20023;-75
2023/11/22 10:56:39;;;;;;;84.70;40.15;;;8.40;99.90;;;;;;5024429;28;20469;-74
2023/11/22 10:59:12;;;;;;;72.78;35.03;;;8.50;99.90;;;;;;5020346;27;20436;-75
2023/11/22 11:01:45;;;;;;;78.30;36.80;;;8.50;99.90;;;;;;5033576;27;20025;-74
2023/11/22 11:04:27;;;;;;;80.40;36.35;;;8.50;99.90;;;;;;5029973;28;20109;-75
2023/11/22 11:06:57;;;;;;;76.57;36.47;;;8.50;99.90;;;;;;5036278;27;20040;-73
2023/11/22 11:09:29;;;;;;;77.50;37.08;;;8.40;99.90;;;;;;5035175;27;20119;-74
2023/11/22 11:11:57;;;;;;;73.15;34.72;;;8.40;99.90;;;;;;5038519;27;20017;-74
2023/11/22 11:14:23;;;;;;;73.15;35.38;;;8.50;99.90;;;;;;5025014;27;20026;-73
2023/11/22 11:16:54;;;;;;;76.78;34.80;;;8.40;99.90;;;;;;5035340;27;20136;-74
2023/11/22 11:19:22;;;;;;;79.50;35.85;;;8.50;99.90;;;;;;5035404;27;20033;-73
2023/11/22 11:21:48;;;;;;;75.65;37.13;;;8.50;99.90;;;;;;5037191;27;20059;-74
2023/11/22 11:24:14;;;;;;;75.93;35.42;;;8.50;99.90;;;;;;5038034;27;20105;-75
2023/11/22 11:26:40;;;;;;;73.72;36.25;;;8.60;99.90;;;;;;5040118;27;20507;-75
2023/11/22 11:29:07;;;;;;;77.70;36.22;;;8.60;99.90;;;;;;5030132;27;20025;-75
2023/11/22 11:31:39;;;;;;;69.03;33.65;;;8.60;99.90;;;;;;5036678;27;20529;-74
2023/11/22 11:34:08;;;;;;;76.68;34.92;;;8.50;99.90;;;;;;5032011;28;20186;-74
2023/11/22 11:36:36;;;;;;;75.25;35.35;;;8.50;99.90;;;;;;5037965;27;20132;-75
2023/11/22 11:39:09;;;;;;;78.90;35.03;;;8.60;99.90;;;;;;5029382;27;20030;-74
2023/11/22 11:41:39;;;;;;;72.00;34.20;;;8.40;99.90;;;;;;5034091;27;20021;-75
2023/11/22 11:44:14;;;;;;;72.03;33.72;;;8.40;99.90;;;;;;5030298;27;20026;-74
2023/11/22 11:46:40;;;;;;;79.43;36.28;;;8.50;99.90;;;;;;5035309;27;20029;-75
2023/11/22 11:49:13;;;;;;;79.57;36.72;;;8.50;99.90;;;;;;5029040;28;20086;-75
2023/11/22 11:51:39;;;;;;;77.07;35.38;;;8.50;99.90;;;;;;5034542;27;20037;-75
2023/11/22 11:54:05;;;;;;;73.97;34.67;;;8.70;99.90;;;;;;5029986;27;20029;-75
2023/11/22 11:56:32;;;;;;;68.80;33.17;;;8.60;99.90;;;;;;5031103;27;20040;-75
2023/11/22 11:58:59;;;;;;;78.60;35.95;;;8.50;99.90;;;;;;5035500;27;20382;-75
2023/11/22 12:01:27;;;;;;;73.47;35.67;;;8.60;99.90;;;;;;5035561;27;20029;-74
2023/11/22 12:03:53;;;;;;;71.03;33.42;;;8.60;99.90;;;;;;5029794;27;20067;-73
2023/11/22 12:06:19;;;;;;;65.88;31.95;;;8.60;99.90;;;;;;5037757;27;20377;-73
2023/11/22 12:08:47;;;;;;;66.82;30.80;;;8.50;99.90;;;;;;5027808;27;20116;-73
2023/11/22 12:11:13;;;;;;;72.07;31.83;;;8.60;99.90;;;;;;5039715;27;20029;-73
2023/11/22 12:13:42;;;;;;;68.85;32.78;;;8.60;99.90;;;;;;5033169;27;20025;-74
2023/11/22 12:16:10;;;;;;;68.72;33.45;;;8.70;99.90;;;;;;5031125;27;20408;-74
2023/11/22 12:18:51;;;;;;;75.28;31.20;;;8.60;99.90;;;;;;5034653;27;20009;-74
2023/11/22 12:21:18;;;;;;;69.40;32.35;;;8.70;99.90;;;;;;5037458;27;20022;-73
2023/11/22 12:23:46;;;;;;;70.60;30.88;;;8.70;99.90;;;;;;5037044;27;20030;-73
2023/11/22 12:26:14;;;;;;;63.58;29.85;;;8.60;99.90;;;;;;5032026;27;20026;-73
2023/11/22 12:28:41;;;;;;;59.83;28.83;;;8.70;99.90;;;;;;5033630;27;20064;-74
2023/11/22 12:31:09;;;;;;;68.38;31.77;;;8.70;99.90;;;;;;5034965;27;20026;-73